createdAt,value
2023-03-15T00:01:22.557Z,3.5
2023-03-15T00:03:20.107Z,3.5
2023-03-15T00:05:25.477Z,3.5
2023-03-15T00:07:22.989Z,3.4
2023-03-15T00:09:20.497Z,3.4
2023-03-15T00:11:18.021Z,3.4
2023-03-15T00:17:10.515Z,3.4
2023-03-15T00:23:10.911Z,3.4
2023-03-15T00:25:08.426Z,3.4
2023-03-15T00:27:05.941Z,3.4
2023-03-15T00:29:03.425Z,3.4
2023-03-15T00:31:00.978Z,3.3
2023-03-15T00:33:06.383Z,3.4
2023-03-15T00:37:01.335Z,3.4
2023-03-15T00:38:58.853Z,3.3
2023-03-15T00:40:56.341Z,3.4
2023-03-15T00:42:53.869Z,3.4
2023-03-15T00:44:51.365Z,3.3
2023-03-15T00:46:56.985Z,3.3
2023-03-15T00:51:54.575Z,3.4
2023-03-15T00:53:52.060Z,3.3
2023-03-15T00:55:49.565Z,3.4
2023-03-15T00:57:47.100Z,3.3
2023-03-15T01:01:50.055Z,3.5
2023-03-15T01:03:47.501Z,3.4
2023-03-15T01:07:42.510Z,3.3
2023-03-15T01:09:40.025Z,3.3
2023-03-15T01:11:37.540Z,3.4
2023-03-15T01:13:42.939Z,3.3
2023-03-15T01:15:40.495Z,3.4
2023-03-15T01:17:38.322Z,3.3
2023-03-15T01:21:33.337Z,3.3
2023-03-15T01:23:30.851Z,3.3
2023-03-15T01:25:28.333Z,3.3
2023-03-15T01:27:33.750Z,3.3
2023-03-15T01:29:31.236Z,3.3
2023-03-15T01:31:28.852Z,3.2
2023-03-15T01:33:26.254Z,3.2
2023-03-15T01:35:23.761Z,3.2
2023-03-15T01:37:21.249Z,3.3
2023-03-15T01:39:18.769Z,3.3
2023-03-15T01:41:24.144Z,3.2
2023-03-15T01:43:21.628Z,3.2
2023-03-15T01:46:21.974Z,3.2
2023-03-15T01:48:19.384Z,3.1
2023-03-15T01:50:16.860Z,3.2
2023-03-15T01:54:19.813Z,3.2
2023-03-15T01:56:17.444Z,3.2
2023-03-15T02:02:09.942Z,3.2
2023-03-15T02:04:07.424Z,3.1
2023-03-15T02:06:04.927Z,3.1
2023-03-15T02:10:07.876Z,3.1
2023-03-15T02:14:02.874Z,3.1
2023-03-15T02:16:00.473Z,3.2
2023-03-15T02:19:55.368Z,3.2
2023-03-15T02:25:55.750Z,3.2
2023-03-15T02:27:53.260Z,3.2
2023-03-15T02:33:45.794Z,3.1
2023-03-15T02:37:48.654Z,3.2
2023-03-15T02:39:46.171Z,3.2
2023-03-15T02:40:48.857Z,3.2
2023-03-15T02:42:46.336Z,3.2
2023-03-15T02:44:43.851Z,3.1
2023-03-15T02:46:41.351Z,3.2
2023-03-15T02:48:46.733Z,3.1
2023-03-15T02:50:44.271Z,3.2
2023-03-15T02:52:41.774Z,3.2
2023-03-15T02:54:39.268Z,3
2023-03-15T02:56:36.784Z,3.2
2023-03-15T02:58:34.285Z,3.2
2023-03-15T03:00:31.775Z,3.2
2023-03-15T03:06:32.202Z,3.1
2023-03-15T03:08:29.702Z,3.2
2023-03-15T03:12:24.727Z,3.1
2023-03-15T03:16:27.787Z,3.1
2023-03-15T03:18:25.272Z,3.1
2023-03-15T03:20:22.782Z,3.2
2023-03-15T03:26:15.284Z,3
2023-03-15T03:28:12.801Z,3.1
2023-03-15T03:32:15.701Z,3
2023-03-15T03:34:13.205Z,3
2023-03-15T03:36:30.548Z,2.9
2023-03-15T03:38:28.106Z,3
2023-03-15T03:40:25.608Z,2.9
2023-03-15T03:42:31.004Z,3
2023-03-15T03:44:28.522Z,3
2023-03-15T03:46:26.030Z,3
2023-03-15T03:48:23.499Z,2.9
2023-03-15T03:54:17.584Z,2.9
2023-03-15T03:58:18.849Z,3.1
2023-03-15T04:02:13.711Z,3
2023-03-15T04:04:11.193Z,3
2023-03-15T04:06:08.693Z,2.9
2023-03-15T04:08:06.194Z,3
2023-03-15T04:10:11.576Z,3.1
2023-03-15T04:12:09.090Z,3.2
2023-03-15T04:14:06.580Z,3.1
2023-03-15T04:16:04.267Z,3.2
2023-03-15T04:18:01.598Z,3.2
2023-03-15T04:19:59.070Z,3.2
2023-03-15T04:21:56.556Z,3.2
2023-03-15T04:24:01.981Z,3.1
2023-03-15T04:25:59.472Z,3.1
2023-03-15T04:28:59.640Z,3.1
2023-03-15T04:30:57.170Z,3.2
2023-03-15T04:32:54.834Z,3.2
2023-03-15T04:34:52.091Z,3.1
2023-03-15T04:36:57.473Z,3.2
2023-03-15T04:38:54.960Z,3.2
2023-03-15T04:40:54.023Z,3.2
2023-03-15T04:42:51.477Z,3.2
2023-03-15T04:46:46.380Z,3.2
2023-03-15T04:48:43.834Z,3.2
2023-03-15T04:52:46.740Z,3.2
2023-03-15T04:56:41.708Z,3.2
2023-03-15T05:02:34.220Z,3.2
2023-03-15T05:06:37.129Z,3.2
2023-03-15T05:10:32.109Z,3.2
2023-03-15T05:12:29.642Z,3.2
2023-03-15T05:14:27.113Z,3.2
2023-03-15T05:16:24.694Z,3.2
2023-03-15T05:18:30.009Z,3.2
2023-03-15T05:20:27.487Z,3.3
2023-03-15T05:22:25.001Z,3.3
2023-03-15T05:23:27.676Z,3.2
2023-03-15T05:25:25.179Z,3.3
2023-03-15T05:27:22.674Z,3.4
2023-03-15T05:31:25.632Z,3.2
2023-03-15T05:33:23.066Z,3.3
2023-03-15T05:39:15.519Z,3
2023-03-15T05:41:13.032Z,2.9
2023-03-15T05:43:10.534Z,2.8
2023-03-15T05:45:15.930Z,2.8
2023-03-15T05:49:10.930Z,2.8
2023-03-15T05:51:08.440Z,2.7
2023-03-15T05:53:05.945Z,2.7
2023-03-15T05:55:03.446Z,2.7
2023-03-15T05:57:00.931Z,2.8
2023-03-15T05:59:06.345Z,2.9
2023-03-15T06:01:03.841Z,2.8
2023-03-15T06:03:01.418Z,2.7
2023-03-15T06:04:58.877Z,2.7
2023-03-15T06:06:56.450Z,2.6
2023-03-15T06:08:53.890Z,2.6
2023-03-15T06:10:51.380Z,2.6
2023-03-15T06:14:54.286Z,2.8
2023-03-15T06:16:51.816Z,2.8
2023-03-15T06:17:54.480Z,2.8
2023-03-15T06:19:51.972Z,2.8
2023-03-15T06:23:46.960Z,3
2023-03-15T06:25:52.367Z,3
2023-03-15T06:31:44.878Z,3
2023-03-15T06:33:42.355Z,3.1
2023-03-15T06:37:37.421Z,3.1
2023-03-15T06:39:42.680Z,3
2023-03-15T06:41:40.186Z,3
2023-03-15T06:43:37.678Z,3.1
2023-03-15T06:45:35.189Z,3
2023-03-15T06:47:32.681Z,3
2023-03-15T06:51:27.653Z,3.1
2023-03-15T06:53:33.063Z,3.1
2023-03-15T06:55:30.542Z,3.1
2023-03-15T06:57:28.043Z,3.2
2023-03-15T06:59:25.541Z,3.1
2023-03-15T07:01:23.122Z,3.1
2023-03-15T07:03:20.510Z,3.2
2023-03-15T07:07:23.392Z,3.1
2023-03-15T07:09:20.991Z,3.1
2023-03-15T07:11:18.469Z,3.1
2023-03-15T07:13:45.433Z,3.2
2023-03-15T07:15:42.994Z,3.2
2023-03-15T07:17:40.548Z,3.2
2023-03-15T07:19:55.941Z,3.2
2023-03-15T07:21:43.386Z,3.3
2023-03-15T07:23:40.889Z,3.3
2023-03-15T07:25:54.075Z,3.4
2023-03-15T07:27:35.876Z,3.4
2023-03-15T07:29:33.335Z,3.5
2023-03-15T07:33:36.272Z,3.6
2023-03-15T07:39:28.699Z,3.7
2023-03-15T07:41:26.204Z,3.9
2023-03-15T07:43:23.718Z,3.9
2023-03-15T07:49:24.052Z,4
2023-03-15T07:51:21.581Z,4.1
2023-03-15T07:55:16.574Z,4.2
2023-03-15T07:57:14.105Z,4.3
2023-03-15T07:59:11.601Z,4.2
2023-03-15T08:01:17.019Z,4.3
2023-03-15T08:03:14.631Z,4.4
2023-03-15T08:05:12.047Z,4.5
2023-03-15T08:06:14.737Z,4.4
2023-03-15T08:12:07.288Z,4.5
2023-03-15T08:14:12.678Z,4.6
2023-03-15T08:16:10.234Z,4.6
2023-03-15T08:20:05.234Z,4.8
2023-03-15T08:22:02.765Z,4.9
2023-03-15T08:24:00.254Z,4.8
2023-03-15T08:28:03.204Z,5.1
2023-03-15T08:31:58.279Z,5
2023-03-15T08:33:55.737Z,5.2
2023-03-15T08:35:53.402Z,5.2
2023-03-15T08:37:50.803Z,5.3
2023-03-15T08:39:48.314Z,5.3
2023-03-15T08:41:53.736Z,5.4
2023-03-15T08:43:51.259Z,5.6
2023-03-15T08:46:00.267Z,5.5
2023-03-15T08:47:46.313Z,5.5
2023-03-15T08:49:43.853Z,5.6
2023-03-15T08:51:41.392Z,5.6
2023-03-15T08:53:38.890Z,5.7
2023-03-15T08:55:44.354Z,5.8
2023-03-15T08:57:41.841Z,5.9
2023-03-15T09:00:42.122Z,6
2023-03-15T09:04:37.231Z,6.2
2023-03-15T09:06:34.726Z,6.1
2023-03-15T09:08:40.148Z,6.2
2023-03-15T09:10:37.705Z,6.3
2023-03-15T09:12:35.216Z,6.4
2023-03-15T09:14:32.748Z,6.3
2023-03-15T09:18:28.816Z,6.5
2023-03-15T09:20:26.356Z,6.6
2023-03-15T09:22:38.946Z,6.6
2023-03-15T09:24:29.705Z,6.6
2023-03-15T09:26:27.251Z,6.5
2023-03-15T09:28:24.798Z,6.6
2023-03-15T09:30:22.367Z,6.7
2023-03-15T09:34:17.519Z,6.8
2023-03-15T09:36:22.968Z,6.7
2023-03-15T09:38:20.491Z,6.9
2023-03-15T09:40:18.060Z,6.8
2023-03-15T09:42:15.593Z,6.8
2023-03-15T09:44:13.160Z,6.8
2023-03-15T09:46:10.833Z,6.9
2023-03-15T09:48:08.254Z,7
2023-03-15T09:50:13.716Z,7
2023-03-15T09:52:11.259Z,7
2023-03-15T09:54:08.831Z,7
2023-03-15T09:55:11.567Z,7.1
2023-03-15T09:57:09.133Z,7.1
2023-03-15T09:59:06.686Z,7.2
2023-03-15T10:01:04.257Z,7.2
2023-03-15T10:03:09.665Z,7.3
2023-03-15T10:05:07.217Z,7.4
2023-03-15T10:07:04.775Z,7.5
2023-03-15T10:09:02.370Z,7.3
2023-03-15T10:10:59.940Z,7.5
2023-03-15T10:12:57.499Z,7.5
2023-03-15T10:14:55.062Z,7.5
2023-03-15T10:17:00.516Z,7.6
2023-03-15T10:18:58.154Z,7.6
2023-03-15T10:20:55.695Z,7.6
2023-03-15T10:22:54.792Z,7.6
2023-03-15T10:24:52.318Z,7.8
2023-03-15T10:26:49.878Z,7.8
2023-03-15T10:28:47.478Z,7.7
2023-03-15T10:30:52.994Z,7.9
2023-03-15T10:36:45.662Z,8.1
2023-03-15T10:38:43.217Z,8.2
2023-03-15T10:44:43.806Z,8.3
2023-03-15T10:46:41.466Z,8.2
2023-03-15T10:50:56.482Z,8.3
2023-03-15T10:52:53.667Z,8.4
2023-03-15T10:59:09.475Z,9.1
2023-03-15T11:00:51.870Z,9.4
2023-03-15T11:06:44.651Z,9.9
2023-03-15T11:10:47.734Z,10.1
2023-03-15T11:12:45.316Z,10.1
2023-03-15T11:14:42.884Z,10.4
2023-03-15T11:16:40.486Z,10.5
2023-03-15T11:18:38.114Z,10.5
2023-03-15T11:20:35.667Z,10.4
2023-03-15T11:22:33.287Z,10
2023-03-15T11:24:38.812Z,10
2023-03-15T11:28:33.986Z,10
2023-03-15T11:30:31.589Z,10.5
2023-03-15T11:34:26.752Z,11
2023-03-15T11:43:27.880Z,12.2
2023-03-15T11:45:25.510Z,11.9
2023-03-15T11:47:23.103Z,11.5
2023-03-15T11:53:23.718Z,11.8
2023-03-15T11:59:16.541Z,12.3
2023-03-15T12:01:14.175Z,12.8
2023-03-15T12:05:18.350Z,12.7
2023-03-15T12:07:14.859Z,12.7
2023-03-15T12:09:12.438Z,12.9
2023-03-15T12:15:05.262Z,13.7
2023-03-15T12:17:02.790Z,13.6
2023-03-15T12:19:08.350Z,13.6
2023-03-15T12:21:05.879Z,13.8
2023-03-15T12:23:03.430Z,14
2023-03-15T12:25:01.036Z,13.6
2023-03-15T12:28:56.162Z,13
2023-03-15T12:30:53.778Z,13.4
2023-03-15T12:39:54.727Z,14
2023-03-15T12:41:52.288Z,14.4
2023-03-15T12:47:52.930Z,14.3
2023-03-15T12:51:47.998Z,14.9
2023-03-15T12:53:45.530Z,15
2023-03-15T12:55:43.077Z,14.6
2023-03-15T12:57:40.670Z,15
2023-03-15T12:59:46.075Z,15.4
2023-03-15T13:01:43.679Z,15.6
2023-03-15T13:03:41.135Z,15.8
2023-03-15T13:05:38.673Z,16.1
2023-03-15T13:07:50.250Z,16.3
2023-03-15T13:09:33.705Z,17.1
2023-03-15T13:11:31.524Z,17.1
2023-03-15T13:13:36.695Z,18.1
2023-03-15T13:15:34.262Z,18.1
2023-03-15T13:23:26.119Z,19.1
2023-03-15T13:27:27.149Z,19.2
2023-03-15T13:34:22.362Z,20.1
2023-03-15T13:36:19.858Z,20.1
2023-03-15T13:38:17.330Z,20.3
2023-03-15T13:40:22.868Z,20
2023-03-15T13:46:15.422Z,20.4
2023-03-15T13:48:13.392Z,20.5
2023-03-15T13:50:10.256Z,20.5
2023-03-15T13:52:07.632Z,21
2023-03-15T13:54:13.083Z,21.5
2023-03-15T13:56:10.543Z,21.3
2023-03-15T13:58:08.029Z,22.2
2023-03-15T14:00:05.496Z,22.8
2023-03-15T14:02:02.988Z,22.9
2023-03-15T14:04:00.433Z,22.9
2023-03-15T14:05:57.872Z,23.6
2023-03-15T14:08:03.300Z,23.6
2023-03-15T14:10:00.754Z,23.9
2023-03-15T14:11:58.345Z,24
2023-03-15T14:13:55.662Z,23.3
2023-03-15T14:15:53.124Z,22.8
2023-03-15T14:19:48.031Z,21.8
2023-03-15T14:21:53.433Z,21.8
2023-03-15T14:23:50.909Z,21.6
2023-03-15T14:25:48.368Z,20.9
2023-03-15T14:28:15.125Z,21.2
2023-03-15T14:30:12.609Z,21.1
2023-03-15T14:32:09.938Z,21.4
2023-03-15T14:34:15.376Z,21.5
2023-03-15T14:36:12.879Z,21.3
2023-03-15T14:38:10.350Z,20.8
2023-03-15T14:40:07.909Z,20.5
2023-03-15T14:42:05.420Z,21
2023-03-15T14:44:02.844Z,20.7
2023-03-15T14:46:00.350Z,20.3
2023-03-15T14:50:03.336Z,17.3
2023-03-15T14:52:00.781Z,16.2
2023-03-15T14:53:58.308Z,15.6
2023-03-15T14:55:55.868Z,15.1
2023-03-15T14:57:53.402Z,14.8
2023-03-15T15:01:56.474Z,14.5
2023-03-15T15:03:54.001Z,14.4
2023-03-15T15:11:44.324Z,13.8
2023-03-15T15:17:45.096Z,13.5
2023-03-15T15:19:42.688Z,13.3
2023-03-15T15:20:45.462Z,13.2
2023-03-15T15:24:40.671Z,13
2023-03-15T15:26:38.287Z,12.8
2023-03-15T15:28:43.784Z,12.7
2023-03-15T15:32:39.069Z,12.6
2023-03-15T15:34:36.639Z,12.6
2023-03-15T15:36:34.277Z,12.5
2023-03-15T15:38:31.903Z,12.4
2023-03-15T15:40:29.515Z,12.3
2023-03-15T15:42:35.029Z,12.2
2023-03-15T15:44:32.668Z,12.3
2023-03-15T15:50:25.478Z,12
2023-03-15T15:52:23.111Z,12
2023-03-15T15:54:20.762Z,11.9
2023-03-15T15:56:26.292Z,11.9
2023-03-15T15:58:23.883Z,11.9
2023-03-15T16:00:21.513Z,11.8
2023-03-15T16:02:19.342Z,11.8
2023-03-15T16:04:18.306Z,11.9
2023-03-15T16:06:15.891Z,11.9
2023-03-15T16:08:13.485Z,11.8
2023-03-15T16:10:18.993Z,11.5
2023-03-15T16:12:16.657Z,11.5
2023-03-15T16:14:15.894Z,11.4
2023-03-15T16:17:14.729Z,11.3
2023-03-15T16:19:12.327Z,11.3
2023-03-15T16:23:15.468Z,11
2023-03-15T16:25:13.103Z,11
2023-03-15T16:27:10.706Z,10.9
2023-03-15T16:29:08.342Z,10.9
2023-03-15T16:31:06.017Z,10.9
2023-03-15T16:33:03.654Z,10.9
2023-03-15T16:35:01.217Z,10.9
2023-03-15T16:37:06.739Z,11
2023-03-15T16:39:04.383Z,10.9
2023-03-15T16:41:01.989Z,10.9
2023-03-15T16:42:59.570Z,11
2023-03-15T16:44:57.227Z,10.9
2023-03-15T16:46:54.833Z,10.8
2023-03-15T16:48:52.447Z,10.6
2023-03-15T16:50:57.971Z,10.5
2023-03-15T16:52:55.612Z,10.6
2023-03-15T16:54:53.228Z,10.6
2023-03-15T17:02:43.666Z,10.4
2023-03-15T17:06:46.858Z,10.3
2023-03-15T17:08:44.451Z,10.2
2023-03-15T17:09:47.216Z,10.1
2023-03-15T17:11:44.813Z,10.1
2023-03-15T17:13:42.464Z,10.1
2023-03-15T17:17:45.587Z,10
2023-03-15T17:19:43.233Z,10.1
2023-03-15T17:23:38.450Z,9.9
2023-03-15T17:27:33.653Z,9.8
2023-03-15T17:43:22.496Z,9.6
2023-03-15T17:45:27.998Z,9.4
2023-03-15T17:47:25.596Z,9.5
2023-03-15T17:49:23.190Z,9.4
2023-03-15T17:55:16.050Z,9.3
2023-03-15T17:57:13.698Z,9.3
2023-03-15T17:59:19.180Z,9.3
2023-03-15T18:01:16.959Z,9.3
2023-03-15T18:03:14.386Z,9
2023-03-15T18:15:37.246Z,8.9
2023-03-15T18:17:34.869Z,8.9
2023-03-15T18:19:32.451Z,8.8
2023-03-15T18:21:30.063Z,8.8
2023-03-15T18:23:27.648Z,8.6
2023-03-15T18:25:33.171Z,8.6
2023-03-15T18:27:30.759Z,8.6
2023-03-15T18:29:28.339Z,8.6
2023-03-15T18:31:26.085Z,8.6
2023-03-15T18:33:23.576Z,8.5
2023-03-15T18:39:24.293Z,8.5
2023-03-15T18:49:12.314Z,8.3
2023-03-15T18:51:09.909Z,8.2
2023-03-15T18:53:15.420Z,8.1
2023-03-15T18:55:13.013Z,8.2
2023-03-15T18:57:10.568Z,8.2
2023-03-15T18:58:13.329Z,8.1
2023-03-15T19:00:10.938Z,8.1
2023-03-15T19:04:06.145Z,7.9
2023-03-15T19:06:11.764Z,7.9
2023-03-15T19:08:09.248Z,7.9
2023-03-15T19:10:06.869Z,7.9
2023-03-15T19:12:04.484Z,7.7
2023-03-15T19:15:59.689Z,7.7
2023-03-15T19:25:55.587Z,7.6
2023-03-15T19:27:53.206Z,7.4
2023-03-15T19:29:50.779Z,7.4
2023-03-15T19:31:48.368Z,7.4
2023-03-15T19:33:53.877Z,7.3
2023-03-15T19:35:51.550Z,7.4
2023-03-15T19:37:49.056Z,7.4
2023-03-15T19:39:46.700Z,7.5
2023-03-15T19:49:42.562Z,7.3
2023-03-15T19:51:40.166Z,7.2
2023-03-15T19:52:42.892Z,7.3
2023-03-15T19:54:40.440Z,7.2
2023-03-15T19:56:38.045Z,7.3
2023-03-15T19:58:35.639Z,7.2
2023-03-15T20:00:41.137Z,7.2
2023-03-15T20:10:29.089Z,7.1
2023-03-15T20:12:26.707Z,7
2023-03-15T20:14:32.173Z,7
2023-03-15T20:16:29.807Z,7
2023-03-15T20:18:27.351Z,6.9
2023-03-15T20:20:25.134Z,6.9
2023-03-15T20:22:22.513Z,6.8
2023-03-15T20:28:23.176Z,6.8
2023-03-15T20:34:15.932Z,6.7
2023-03-15T20:36:13.589Z,6.7
2023-03-15T20:38:11.077Z,6.7
2023-03-15T20:40:08.686Z,6.7
2023-03-15T20:42:14.143Z,6.8
2023-03-15T20:44:11.733Z,6.7
2023-03-15T20:46:09.286Z,6.6
2023-03-15T20:53:04.780Z,6.6
2023-03-15T20:59:05.432Z,6.5
2023-03-15T21:01:03.061Z,6.5
2023-03-15T21:03:00.609Z,6.5
2023-03-15T21:04:58.159Z,6.5
2023-03-15T21:06:55.775Z,6.5
2023-03-15T21:09:01.251Z,6.4
2023-03-15T21:12:56.415Z,6.3
2023-03-15T21:14:53.999Z,6.3
2023-03-15T21:16:51.612Z,6.3
2023-03-15T21:18:49.123Z,6.3
2023-03-15T21:20:46.734Z,6.2
2023-03-15T21:24:55.955Z,6.2
2023-03-15T21:26:47.344Z,6.2
2023-03-15T21:28:44.888Z,6.1
2023-03-15T21:30:42.516Z,6.2
2023-03-15T21:34:37.635Z,6.1
2023-03-15T21:36:43.110Z,6.2
2023-03-15T21:50:54.967Z,6
2023-03-15T21:52:52.520Z,6
2023-03-15T21:54:50.076Z,6.1
2023-03-15T21:56:47.670Z,6
2023-03-15T21:58:45.244Z,6
2023-03-15T22:00:42.912Z,6
2023-03-15T22:02:48.295Z,6
2023-03-15T22:04:45.939Z,6.1
2023-03-15T22:06:43.437Z,6.1
2023-03-15T22:14:33.721Z,6.1
2023-03-15T22:16:39.244Z,6
2023-03-15T22:18:36.736Z,6.1
2023-03-15T22:20:34.306Z,6
2023-03-15T22:26:27.008Z,6
2023-03-15T22:28:24.578Z,6
2023-03-15T22:30:30.130Z,6
2023-03-15T22:32:27.660Z,6
2023-03-15T22:34:25.182Z,6
2023-03-15T22:35:27.951Z,6
2023-03-15T22:37:25.497Z,6
2023-03-15T22:39:23.049Z,6
2023-03-15T22:41:20.611Z,5.9
2023-03-15T22:43:26.100Z,5.8
2023-03-15T22:45:23.643Z,5.8
2023-03-15T22:47:21.225Z,5.8
2023-03-15T22:49:18.796Z,5.8
2023-03-15T22:51:16.341Z,5.8
2023-03-15T22:53:13.924Z,5.8
2023-03-15T22:57:16.942Z,5.8
2023-03-15T22:59:14.548Z,5.8
2023-03-15T23:07:04.844Z,5.8
2023-03-15T23:09:04.472Z,5.8
2023-03-15T23:11:07.866Z,5.7
2023-03-15T23:13:05.466Z,5.7
2023-03-15T23:15:04.211Z,5.7
2023-03-15T23:17:00.590Z,5.7
2023-03-15T23:18:58.140Z,5.7
2023-03-15T23:20:55.679Z,5.8
2023-03-15T23:22:53.254Z,5.7
2023-03-15T23:26:56.286Z,5.7
2023-03-15T23:28:53.838Z,5.7
2023-03-15T23:31:54.147Z,5.7
2023-03-15T23:33:51.712Z,5.8
2023-03-15T23:35:49.290Z,5.7
2023-03-15T23:37:54.704Z,5.7
2023-03-15T23:39:52.285Z,5.7
2023-03-15T23:41:49.831Z,5.7
2023-03-15T23:43:47.439Z,5.6
2023-03-15T23:45:44.976Z,5.6
2023-03-15T23:47:42.541Z,5.6
2023-03-15T23:49:40.106Z,5.6
2023-03-15T23:51:45.567Z,5.6
2023-03-15T23:53:43.126Z,5.6
